createdAt,value
2023-04-21T00:01:32.150Z,90.20
2023-04-21T00:04:34.337Z,90.30
2023-04-21T00:07:38.396Z,90.20
2023-04-21T00:10:41.578Z,90.40
2023-04-21T00:13:43.826Z,90.40
2023-04-21T00:16:45.971Z,90.40
2023-04-21T00:19:48.096Z,90.50
2023-04-21T00:22:52.781Z,90.40
2023-04-21T00:25:55.575Z,90.40
2023-04-21T00:28:57.736Z,90.50
2023-04-21T00:32:00.837Z,90.50
2023-04-21T00:35:03.327Z,90.70
2023-04-21T00:38:05.463Z,90.70
2023-04-21T00:41:07.784Z,90.70
2023-04-21T00:44:10.638Z,90.50
2023-04-21T00:47:12.936Z,90.60
2023-04-21T00:50:15.378Z,90.70
2023-04-21T00:53:18.051Z,91.00
2023-04-21T00:56:20.226Z,90.90
2023-04-21T00:59:22.271Z,90.90
2023-04-21T01:02:24.785Z,91.10
2023-04-21T01:05:26.931Z,91.40
2023-04-21T01:08:29.303Z,91.30
2023-04-21T01:11:32.284Z,91.20
2023-04-21T01:14:35.096Z,91.40
2023-04-21T01:17:38.923Z,91.50
2023-04-21T01:20:41.326Z,91.70
2023-04-21T01:23:43.843Z,91.50
2023-04-21T01:26:49.474Z,91.60
2023-04-21T01:29:53.470Z,91.50
2023-04-21T01:32:55.508Z,91.80
2023-04-21T01:35:57.709Z,91.90
2023-04-21T01:39:00.732Z,92.00
2023-04-21T01:42:02.783Z,91.90
2023-04-21T01:45:06.143Z,92.00
2023-04-21T01:48:08.257Z,92.00
2023-04-21T01:51:11.300Z,92.00
2023-04-21T01:54:13.430Z,92.00
2023-04-21T01:57:16.608Z,92.00
2023-04-21T02:00:19.035Z,92.50
2023-04-21T02:03:21.404Z,92.40
2023-04-21T02:06:24.494Z,92.30
2023-04-21T02:09:26.713Z,92.30
2023-04-21T02:12:28.790Z,92.10
2023-04-21T02:15:30.902Z,92.00
2023-04-21T02:18:34.608Z,92.20
2023-04-21T02:21:36.664Z,92.20
2023-04-21T02:24:38.961Z,92.30
2023-04-21T02:27:41.032Z,92.30
2023-04-21T02:30:43.057Z,92.30
2023-04-21T02:33:45.613Z,92.50
2023-04-21T02:36:47.706Z,92.30
2023-04-21T02:39:50.407Z,92.30
2023-04-21T02:42:52.362Z,92.40
2023-04-21T02:45:54.514Z,92.30
2023-04-21T02:48:57.071Z,92.30
2023-04-21T02:51:59.178Z,92.30
2023-04-21T02:55:03.485Z,92.40
2023-04-21T02:58:05.522Z,92.40
2023-04-21T03:01:07.655Z,92.50
2023-04-21T03:04:09.828Z,92.60
2023-04-21T03:07:15.253Z,92.70
2023-04-21T03:10:17.326Z,92.70
2023-04-21T03:13:19.343Z,92.70
2023-04-21T03:16:21.636Z,92.60
2023-04-21T03:19:23.782Z,92.80
2023-04-21T03:22:26.293Z,92.70
2023-04-21T03:25:28.325Z,92.60
2023-04-21T03:28:30.438Z,92.70
2023-04-21T03:31:32.588Z,92.90
2023-04-21T03:34:34.567Z,93.30
2023-04-21T03:37:36.696Z,93.00
2023-04-21T03:40:38.702Z,93.20
2023-04-21T03:43:40.841Z,93.20
2023-04-21T03:46:43.126Z,93.10
2023-04-21T03:49:45.117Z,93.20
2023-04-21T03:52:47.304Z,93.00
2023-04-21T03:55:53.121Z,93.00
2023-04-21T03:58:55.282Z,93.00
2023-04-21T04:01:57.341Z,93.10
2023-04-21T04:04:59.525Z,93.20
2023-04-21T04:08:06.751Z,93.20
2023-04-21T04:11:08.963Z,93.20
2023-04-21T04:14:11.490Z,93.60
2023-04-21T04:17:13.690Z,93.60
2023-04-21T04:20:15.887Z,93.70
2023-04-21T04:23:19.064Z,93.80
2023-04-21T04:26:22.821Z,93.90
2023-04-21T04:29:25.115Z,93.90
2023-04-21T04:32:30.174Z,93.90
2023-04-21T04:35:32.364Z,93.90
2023-04-21T04:38:37.650Z,94.00
2023-04-21T04:41:41.806Z,93.90
2023-04-21T04:44:44.001Z,94.00
2023-04-21T04:47:46.386Z,94.10
2023-04-21T04:50:48.632Z,94.20
2023-04-21T04:53:50.898Z,94.10
2023-04-21T04:56:53.181Z,94.40
2023-04-21T04:59:56.410Z,94.30
2023-04-21T05:02:58.758Z,94.40
2023-04-21T05:06:01.146Z,94.30
2023-04-21T05:09:05.053Z,94.60
2023-04-21T05:12:09.183Z,94.70
2023-04-21T05:15:12.214Z,95.00
2023-04-21T05:18:14.454Z,95.40
2023-04-21T05:21:24.096Z,95.30
2023-04-21T05:24:26.277Z,95.70
2023-04-21T05:27:29.477Z,95.90
2023-04-21T05:30:31.646Z,96.60
2023-04-21T05:33:33.850Z,97.20
2023-04-21T05:36:36.107Z,97.40
2023-04-21T05:39:38.343Z,97.20
2023-04-21T05:42:40.514Z,97.20
2023-04-21T05:45:42.700Z,97.00
2023-04-21T05:48:45.029Z,96.90
2023-04-21T05:51:47.231Z,96.60
2023-04-21T05:54:49.563Z,96.40
2023-04-21T05:57:51.793Z,96.30
2023-04-21T06:00:53.925Z,96.30
2023-04-21T06:03:56.384Z,96.30
2023-04-21T06:06:58.619Z,96.40
2023-04-21T06:10:00.864Z,96.40
2023-04-21T06:13:03.631Z,96.30
2023-04-21T06:16:06.211Z,96.20
2023-04-21T06:19:08.365Z,97.00
2023-04-21T06:22:11.416Z,97.70
2023-04-21T06:25:13.661Z,97.70
2023-04-21T06:28:16.735Z,98.10
2023-04-21T06:31:20.082Z,98.30
2023-04-21T06:34:22.604Z,98.70
2023-04-21T06:37:26.290Z,98.90
2023-04-21T06:40:28.569Z,99.10
2023-04-21T06:43:30.729Z,99.20
2023-04-21T06:46:32.901Z,99.00
2023-04-21T06:49:35.256Z,99.20
2023-04-21T06:52:37.341Z,99.50
2023-04-21T06:55:40.422Z,99.10
2023-04-21T06:58:42.540Z,99.00
2023-04-21T07:01:44.794Z,99.10
2023-04-21T07:04:47.340Z,99.30
2023-04-21T07:07:49.976Z,99.10
2023-04-21T07:10:52.355Z,99.20
2023-04-21T07:13:55.886Z,99.60
2023-04-21T07:16:58.165Z,98.70
2023-04-21T07:20:06.461Z,98.10
2023-04-21T07:23:08.654Z,98.50
2023-04-21T07:26:10.887Z,98.10
2023-04-21T07:29:13.081Z,98.20
2023-04-21T07:32:16.019Z,97.90
2023-04-21T07:35:18.619Z,97.80
2023-04-21T07:38:21.080Z,98.00
2023-04-21T07:41:23.563Z,98.30
2023-04-21T07:44:25.935Z,98.60
2023-04-21T07:47:28.441Z,98.20
2023-04-21T07:50:31.043Z,98.30
2023-04-21T07:53:33.268Z,98.50
2023-04-21T07:56:35.632Z,98.70
2023-04-21T07:59:37.834Z,98.90
2023-04-21T08:02:40.213Z,99.20
2023-04-21T08:05:42.954Z,98.70
2023-04-21T08:08:45.231Z,98.90
2023-04-21T08:11:47.600Z,98.50
2023-04-21T08:14:49.822Z,98.30
2023-04-21T08:17:52.881Z,98.80
2023-04-21T08:20:57.703Z,98.90
2023-04-21T08:24:00.275Z,98.80
2023-04-21T08:27:03.831Z,98.80
2023-04-21T08:30:08.278Z,99.00
2023-04-21T08:33:13.971Z,98.90
2023-04-21T08:36:28.553Z,98.60
2023-04-21T08:39:31.480Z,98.60
2023-04-21T08:42:37.175Z,98.20
2023-04-21T08:45:41.056Z,98.30
2023-04-21T08:48:43.327Z,98.00
2023-04-21T08:51:46.334Z,97.80
2023-04-21T08:54:52.194Z,97.70
2023-04-21T08:57:54.595Z,97.50
2023-04-21T09:00:58.854Z,97.50
2023-04-21T09:04:17.757Z,96.70
2023-04-21T09:07:36.328Z,96.00
2023-04-21T09:10:51.229Z,95.30
2023-04-21T09:13:58.151Z,94.60
2023-04-21T09:17:04.789Z,94.20
2023-04-21T09:20:17.528Z,93.50
2023-04-21T09:23:21.650Z,93.20
2023-04-21T09:26:23.911Z,92.70
2023-04-21T09:29:26.835Z,92.70
2023-04-21T09:32:29.075Z,92.90
2023-04-21T09:35:36.563Z,93.10
2023-04-21T09:38:38.752Z,93.30
2023-04-21T09:41:41.286Z,94.70
2023-04-21T09:44:52.367Z,94.30
2023-04-21T09:48:03.059Z,94.20
2023-04-21T09:57:25.901Z,94.80
2023-04-21T10:00:29.113Z,94.90
2023-04-21T10:03:31.904Z,94.50
2023-04-21T10:06:34.310Z,94.40
2023-04-21T10:09:59.833Z,94.10
2023-04-21T10:13:02.878Z,94.40
2023-04-21T10:16:11.809Z,94.60
2023-04-21T10:19:28.104Z,94.60
2023-04-21T10:22:34.785Z,94.40
2023-04-21T10:25:39.835Z,94.50
2023-04-21T10:28:57.221Z,94.20
2023-04-21T10:31:59.849Z,93.80
2023-04-21T10:35:02.266Z,93.30
2023-04-21T10:38:08.167Z,92.80
2023-04-21T10:41:29.982Z,93.20
2023-04-21T10:44:33.082Z,92.80
2023-04-21T10:47:49.804Z,93.30
2023-04-21T10:50:52.271Z,93.60
2023-04-21T10:53:54.420Z,93.60
2023-04-21T10:56:59.183Z,94.10
2023-04-21T11:00:01.896Z,94.00
2023-04-21T11:03:06.795Z,94.20
2023-04-21T11:06:18.760Z,93.90
2023-04-21T11:09:21.267Z,93.60
2023-04-21T11:12:31.290Z,93.90
2023-04-21T11:15:33.456Z,94.30
2023-04-21T11:18:43.676Z,94.40
2023-04-21T11:21:49.213Z,95.00
2023-04-21T11:24:55.548Z,95.20
2023-04-21T11:28:00.413Z,95.60
2023-04-21T11:31:03.104Z,95.60
2023-04-21T11:34:07.130Z,95.30
2023-04-21T11:37:10.904Z,95.20
2023-04-21T11:40:14.324Z,95.20
2023-04-21T11:43:16.549Z,95.00
2023-04-21T11:46:25.791Z,95.10
2023-04-21T11:49:29.639Z,96.20
2023-04-21T11:52:33.557Z,96.40
2023-04-21T11:55:37.278Z,96.60
2023-04-21T11:58:39.984Z,96.90
2023-04-21T12:01:49.810Z,97.30
2023-04-21T12:05:08.895Z,97.50
2023-04-21T12:08:16.165Z,98.30
2023-04-21T12:11:18.455Z,98.90
2023-04-21T12:14:23.026Z,99.90
2023-04-21T12:17:25.267Z,99.90
2023-04-21T12:20:30.032Z,99.90
2023-04-21T12:23:32.428Z,99.90
2023-04-21T12:26:34.459Z,99.90
2023-04-21T12:29:37.770Z,99.90
2023-04-21T12:32:39.848Z,99.90
2023-04-21T12:35:42.103Z,99.90
2023-04-21T12:38:44.819Z,99.90
2023-04-21T12:41:49.581Z,99.90
2023-04-21T12:44:51.906Z,99.90
2023-04-21T12:47:55.270Z,99.90
2023-04-21T12:50:57.470Z,99.90
2023-04-21T12:53:59.731Z,99.90
2023-04-21T12:57:02.410Z,99.90
2023-04-21T13:00:06.379Z,99.90
2023-04-21T13:03:08.698Z,99.90
2023-04-21T13:06:11.169Z,99.90
2023-04-21T13:09:13.433Z,99.80
2023-04-21T13:12:15.615Z,99.90
2023-04-21T13:15:17.824Z,99.80
2023-04-21T13:18:19.920Z,99.80
2023-04-21T13:21:22.048Z,99.90
2023-04-21T13:24:26.098Z,99.60
2023-04-21T13:27:28.332Z,99.80
2023-04-21T13:30:30.651Z,99.90
2023-04-21T13:33:35.264Z,99.00
2023-04-21T13:36:37.586Z,98.20
2023-04-21T13:39:40.157Z,98.40
2023-04-21T13:42:42.429Z,98.60
2023-04-21T13:45:44.859Z,99.10
2023-04-21T13:48:46.995Z,99.50
2023-04-21T13:51:49.144Z,99.30
2023-04-21T13:54:52.574Z,99.50
2023-04-21T13:57:54.811Z,99.70
2023-04-21T14:00:57.309Z,99.10
2023-04-21T14:03:59.692Z,98.60
2023-04-21T14:07:02.276Z,98.10
2023-04-21T14:10:04.702Z,98.60
2023-04-21T14:13:06.854Z,97.80
2023-04-21T14:16:09.499Z,97.60
2023-04-21T14:19:11.817Z,97.20
2023-04-21T14:22:14.113Z,97.10
2023-04-21T14:25:16.407Z,97.70
2023-04-21T14:28:18.614Z,97.50
2023-04-21T14:31:22.265Z,97.30
2023-04-21T14:34:26.077Z,97.90
2023-04-21T14:37:28.188Z,96.90
2023-04-21T14:40:30.525Z,96.80
2023-04-21T14:43:32.747Z,96.40
2023-04-21T14:46:35.344Z,96.20
2023-04-21T14:49:38.607Z,96.70
2023-04-21T14:52:41.022Z,96.30
2023-04-21T14:55:43.076Z,96.00
2023-04-21T14:58:45.330Z,95.80
2023-04-21T15:01:47.554Z,94.60
2023-04-21T15:04:50.582Z,94.10
2023-04-21T15:07:52.847Z,93.70
2023-04-21T15:10:55.135Z,93.40
2023-04-21T15:13:57.473Z,94.10
2023-04-21T15:16:59.760Z,94.40
2023-04-21T15:20:02.067Z,94.50
2023-04-21T15:23:05.845Z,94.70
2023-04-21T15:26:07.978Z,94.90
2023-04-21T15:29:10.192Z,95.00
2023-04-21T15:32:12.324Z,95.30
2023-04-21T15:35:14.452Z,95.40
2023-04-21T15:38:16.608Z,95.70
2023-04-21T15:41:18.960Z,94.90
2023-04-21T15:44:21.456Z,94.90
2023-04-21T15:47:23.904Z,94.80
2023-04-21T15:50:26.121Z,94.30
2023-04-21T15:53:28.394Z,94.50
2023-04-21T15:56:30.727Z,94.60
2023-04-21T15:59:32.988Z,94.60
2023-04-21T16:02:35.329Z,93.70
2023-04-21T16:05:38.046Z,94.50
2023-04-21T16:08:40.638Z,94.60
2023-04-21T16:11:42.932Z,95.10
2023-04-21T16:14:56.073Z,95.10
2023-04-21T16:18:06.721Z,95.10
2023-04-21T16:21:09.361Z,95.30
2023-04-21T16:24:11.734Z,94.90
2023-04-21T16:27:14.907Z,95.30
2023-04-21T16:30:17.057Z,95.00
2023-04-21T16:33:19.326Z,94.00
2023-04-21T16:36:31.466Z,94.20
2023-04-21T16:39:33.761Z,95.10
2023-04-21T16:42:36.724Z,95.30
2023-04-21T16:45:38.980Z,95.70
2023-04-21T16:48:41.601Z,94.70
2023-04-21T16:51:45.200Z,94.60
2023-04-21T16:54:47.412Z,95.10
2023-04-21T16:57:49.737Z,95.40
2023-04-21T17:00:52.101Z,94.90
2023-04-21T17:03:54.684Z,94.40
2023-04-21T17:06:56.915Z,94.80
2023-04-21T17:09:59.027Z,95.00
2023-04-21T17:13:01.509Z,95.20
2023-04-21T17:16:03.739Z,95.40
2023-04-21T17:19:05.934Z,95.60
2023-04-21T17:22:08.047Z,95.60
2023-04-21T17:25:11.177Z,95.70
2023-04-21T17:28:15.462Z,95.60
2023-04-21T17:31:18.079Z,94.70
2023-04-21T17:34:20.267Z,95.20
2023-04-21T17:37:22.643Z,95.30
2023-04-21T17:40:24.870Z,95.00
2023-04-21T17:43:27.098Z,96.00
2023-04-21T17:46:29.415Z,95.80
2023-04-21T17:49:31.864Z,95.50
2023-04-21T17:52:34.009Z,95.60
2023-04-21T17:55:36.188Z,95.70
2023-04-21T17:58:38.317Z,95.40
2023-04-21T18:01:41.007Z,95.40
2023-04-21T18:04:44.010Z,95.80
2023-04-21T18:07:47.062Z,95.80
2023-04-21T18:10:50.831Z,95.30
2023-04-21T18:13:53.757Z,94.30
2023-04-21T18:16:59.331Z,93.70
2023-04-21T18:20:01.434Z,93.80
2023-04-21T18:23:03.645Z,93.50
2023-04-21T18:26:05.914Z,93.40
2023-04-21T18:29:08.086Z,93.30
2023-04-21T18:32:10.304Z,93.30
2023-04-21T18:35:14.312Z,93.40
2023-04-21T18:38:16.932Z,93.40
2023-04-21T18:41:19.246Z,93.70
2023-04-21T18:44:21.906Z,93.90
2023-04-21T18:47:24.380Z,94.20
2023-04-21T18:50:30.419Z,94.20
2023-04-21T18:53:32.542Z,94.00
2023-04-21T18:56:35.027Z,94.00
2023-04-21T18:59:37.069Z,94.20
2023-04-21T19:02:39.922Z,93.90
2023-04-21T19:05:42.481Z,94.00
2023-04-21T19:08:44.952Z,94.00
2023-04-21T19:11:47.275Z,94.20
2023-04-21T19:14:50.250Z,94.60
2023-04-21T19:17:52.535Z,94.70
2023-04-21T19:20:54.644Z,94.70
2023-04-21T19:23:57.928Z,95.20
2023-04-21T19:27:02.770Z,95.20
2023-04-21T19:30:07.582Z,95.00
2023-04-21T19:33:09.747Z,95.20
2023-04-21T19:36:13.864Z,95.60
2023-04-21T19:39:16.344Z,95.20
2023-04-21T19:42:18.461Z,95.10
2023-04-21T19:45:22.625Z,95.20
2023-04-21T19:48:25.042Z,95.40
2023-04-21T19:51:28.120Z,95.50
2023-04-21T19:54:31.155Z,95.80
2023-04-21T19:57:34.397Z,96.00
2023-04-21T20:00:36.874Z,96.10
2023-04-21T20:03:40.269Z,96.50
2023-04-21T20:06:42.676Z,96.70
2023-04-21T20:09:44.961Z,96.50
2023-04-21T20:12:47.135Z,96.70
2023-04-21T20:15:49.334Z,96.50
2023-04-21T20:18:51.549Z,96.60
2023-04-21T20:21:53.699Z,96.50
2023-04-21T20:24:58.236Z,96.50
2023-04-21T20:28:00.583Z,96.70
2023-04-21T20:31:03.172Z,96.90
2023-04-21T20:34:05.702Z,97.10
2023-04-21T20:37:08.024Z,97.20
2023-04-21T20:40:11.875Z,97.20
2023-04-21T20:43:15.411Z,97.40
2023-04-21T20:46:18.764Z,97.30
2023-04-21T20:49:20.967Z,97.20
2023-04-21T20:52:23.260Z,97.40
2023-04-21T20:55:25.576Z,97.50
2023-04-21T20:58:27.775Z,97.60
2023-04-21T21:01:31.432Z,97.50
2023-04-21T21:04:33.816Z,97.60
2023-04-21T21:07:35.954Z,97.60
2023-04-21T21:10:40.463Z,97.80
2023-04-21T21:13:42.564Z,98.00
2023-04-21T21:16:45.862Z,98.30
2023-04-21T21:19:49.436Z,98.40
2023-04-21T21:22:51.540Z,98.50
2023-04-21T21:25:53.663Z,98.80
2023-04-21T21:28:55.896Z,98.90
2023-04-21T21:31:57.983Z,98.80
2023-04-21T21:35:00.185Z,98.90
2023-04-21T21:38:03.332Z,98.80
2023-04-21T21:41:05.867Z,99.00
2023-04-21T21:44:08.117Z,99.00
2023-04-21T21:47:10.353Z,99.00
2023-04-21T21:50:12.826Z,99.10
2023-04-21T21:53:15.014Z,99.10
2023-04-21T21:56:17.303Z,98.90
2023-04-21T21:59:20.242Z,99.10
2023-04-21T22:02:22.616Z,99.00
2023-04-21T22:05:24.988Z,98.80
2023-04-21T22:08:27.157Z,99.10
2023-04-21T22:11:29.338Z,98.80
2023-04-21T22:14:31.405Z,98.70
2023-04-21T22:17:34.799Z,98.90
2023-04-21T22:20:37.000Z,98.70
2023-04-21T22:23:39.148Z,98.70
2023-04-21T22:26:42.100Z,98.80
2023-04-21T22:29:44.402Z,98.80
2023-04-21T22:32:46.806Z,99.00
2023-04-21T22:35:48.969Z,99.00
2023-04-21T22:38:51.076Z,99.10
2023-04-21T22:41:53.492Z,99.20
2023-04-21T22:44:55.795Z,99.30
2023-04-21T22:47:58.161Z,99.30
2023-04-21T22:51:00.505Z,99.50
2023-04-21T22:54:02.748Z,99.40
2023-04-21T22:57:04.987Z,99.50
2023-04-21T23:00:09.826Z,99.50
2023-04-21T23:03:12.198Z,99.40
2023-04-21T23:06:14.462Z,99.50
2023-04-21T23:09:16.597Z,99.50
2023-04-21T23:12:18.853Z,99.60
2023-04-21T23:15:21.528Z,99.70
2023-04-21T23:18:23.665Z,99.70
2023-04-21T23:21:26.367Z,99.60
2023-04-21T23:24:28.517Z,99.70
2023-04-21T23:27:30.615Z,99.60
2023-04-21T23:30:32.874Z,99.80
2023-04-21T23:33:35.191Z,99.80
2023-04-21T23:36:37.404Z,99.90
2023-04-21T23:39:39.714Z,99.90
2023-04-21T23:42:41.927Z,99.90
2023-04-21T23:45:49.769Z,99.90
2023-04-21T23:48:52.126Z,99.90
2023-04-21T23:51:54.228Z,99.90
2023-04-21T23:54:56.345Z,99.90
2023-04-21T23:57:58.494Z,99.90
